Houston, Texas
Traffic Map
Current Weather Conditions
Houston, Texas
Overcast Haze
Overcast
58°
Feels Like: 58°
Wind Chill: 58° Ceiling: 200
Heat Index: 58° Visibility: 0.5mi
Dew Point: 57° Wind: 5mph
Humidity: 97% Direction: 310° (NW)
Pressure: 29.99in Gusts: 0mph
Raw Report DataKIAH 190253Z 31004KT 1/2SM R27/P6000FT BR OVC002 14/14 A2999 RMK AO2 SFC VIS 1 1/4 SLP155 T01440139 51006
Traffic Incident Summary
Active as of:
Severity:
Category:
InformationThere was an issue retrieving the traffic information for this location. Please try a different location or try again shortly.
Advertisements
Track Severe Weather on mobile